Portada
METAR-TAF:

METAR-TAF

Aeroports :

Illa Norfolk, Austràlia

latitud: 29-02S, longitud: 167-56E, altitud: 113 m

Observació

L'informe es va fer fa 38 minuts, a les 18:00 UTC
Vent 3 kt del Nord
Temperatura 19°C
Humitat 83%
Pressió 1019 hPa
Visibilitat 10 km o més
Cel ennuvolat a una alçada de 3600 ft

METAR: YSNF 171800Z AUTO 35003KT 9999 // BKN036 19/16 Q1019 RF00.0/000.0

Hora: 04:38 (18:38 UTC)

Pronòstic

L'informe es va fer fa 1 hora i 36 minuts, a les 17:02 UTC
Pronòstic vàlid del 17 a les 18 UTC al 18 a les 18 UTC
Vent 6 kt del Nord
Visibilitat 10 km o més
Núvols disperses a una alçada de 2000 ft
A partir de les 18 a les 1200 UTC
Vent 7 kt del Nord
Visibilitat 10 km o més
Núvols disperses a una alçada de 1000 ft
Cel ennuvolat a una alçada de 2000 ft
xàfecs de pluja

TAF: YSNF 171702Z 1718/1818 36006KT 9999 SCT020 FM181200 36007KT 9999 -SHRA SCT010 BKN020

Observacions i pronòstics meteorològics de més de 4000 aeroports (METAR i TAF).

Les estacions disponibles són els punts grocs i vermells al mapa.

Posi el ratolí al punt desitjat per veure el nom de l'estació.

Feu clic per veure les observacions i els pronòstics meteorològics.

Per canviar el mapa: feu clic els botons verds amb una creu de color negre per apropar; al botó verd amb un guió per allunyar la imatge; o en les fletxes verdes per a mapes adjacents.


METAR-TAF: